Champaign, IL (61820)

3:43 AM CST on January 16, 2018 (GMT -0600)
Crestwood Dr. | | Change Station
Active Advisory: Wind Chill Advisory

Elev 738 ft 40.10 °N, 88.20 °W | Updated 11 seconds ago

Clear
Clear
-2.4 °F
Feels Like -2 °F
N
2.9
Wind Variable Wind from WSW
Gusts 4.9 mph

Today
High -- | Low -- °F
--% Chance of Precip.
Yesterday
High -- | Low -- °F
Precip. -- in
Pressure 30.56 in
Visibility 10.0 miles
Clouds Clear
Windchill -2 °F
Dew Point -8 °F
Humidity 75%
Rainfall 0.00 in
Snow Depth Not available.
7:12 AM 4:53 PM
Waning Crescent, 0% visible
METAR KCMI 160853Z AUTO 26011KT 10SM CLR M20/M23 A3050 RMK AO2 SLP347 T12001228 53008
Pressure 30.56 in
Visibility 10.0 miles
Clouds Clear
Windchill -2 °F
Dew Point -8 °F
Humidity 75%
Rainfall 0.00 in
Snow Depth Not available.
7:12 AM 4:53 PM
Waning Crescent, 0% visible
METAR KCMI 160853Z AUTO 26011KT 10SM CLR M20/M23 A3050 RMK AO2 SLP347 T12001228 53008

Get Your Daily Forecast Email!

Thanks for signing up!

Be on the lookout for a verification email in your inbox.

You'll start receiving severe weather alerts in your inbox..

×

10-Day Weather Forecast

Almanac

Astronomy

Jan. 16, 2018 Rise Set
Actual Time
Civil Twilight
Nautical Twilight
Astronomical Twilight
Moon
Length of Visible Light
Length of Day
Tomorrow will be .
, % of the Moon is Illuminated

Today's Extremes

State Highs State Lows

Community

WunderPhotos

Category 6

Welcome to Category 6. This is the collective home for Weather Underground's featured writeups by Dr. Jeff Masters (right), Bob Henson (left), Chris Burt, and other regular contributors.

Nearby

Air Quality

  Air Quality AQ Index Pollutant
Not available.

Snow Depth

Station Depth Elevation

Earthquake Activity

City Distance Mag. Time & Date
Minimum magnitude displayed is 2.5.

Coastal Water Temperatures

Place Temperature

Stations

Nearby Weather Stations

Station Location Temp. Windchill Dew Point Humidity Wind Precip. Elev Updated Type
                   

Watches & Warnings

Wind Chill Advisory
Issued: 10:11 PM CST Jan. 15, 2018 – National Weather Service

... Wind Chill Advisory remains in effect until noon CST Tuesday...

* what... bitterly cold wind chills expected.

* Where... all of central and southeast Illinois.

* When... the Wind Chill Advisory remains in effect from 6 PM
this evening until noon Tuesday.

* Additional details... bitterly cold wind chills of 15 below to
20 below zero are expected tonight through Tuesday morning. In
addition... many area roads will remain snow-covered and
hazardous.

Precautionary/preparedness actions...

A Wind Chill Advisory means that cold air and the wind will
combine to create low wind chills. Frost bite and hypothermia can
occur if precautions are not taken. Make sure you wear a hat and
gloves.


Auten